Time;durP1;ratioP1;P1;durP2;ratioP2;P2;SDS_P1;SDS_P2;PMS_P1;PMS_P2;Temp;Humidity;BMP_temperature;BMP_pressure;BME280_temperature;BME280_humidity;BME280_pressure;Samples;Min_cycle;Max_cycle;Signal;HPM_P1;HPM_P2
2023/12/12 00:00:06;;;;;;;3.97;1.57;;;;;;;6.18;100.00;100124.13;6099011;28;20380;-72
2023/12/12 00:03:01;;;;;;;7.05;1.50;;;;;;;6.17;100.00;100127.72;6096843;28;20061;-73
2023/12/12 00:05:57;;;;;;;6.90;1.70;;;;;;;6.20;100.00;100137.97;6097580;28;20060;-73
2023/12/12 00:08:52;;;;;;;5.90;2.10;;;;;;;6.13;100.00;100135.06;6095268;28;20267;-73
2023/12/12 00:11:48;;;;;;;5.60;2.20;;;;;;;6.16;100.00;100139.22;6090699;28;20108;-73
2023/12/12 00:14:44;;;;;;;8.25;2.50;;;;;;;6.10;100.00;100130.06;6095285;28;20063;-72
2023/12/12 00:17:39;;;;;;;3.07;1.60;;;;;;;6.14;100.00;100138.53;6097538;28;20064;-73
2023/12/12 00:20:34;;;;;;;5.32;1.88;;;;;;;6.17;100.00;100133.00;6097311;28;20383;-74
2023/12/12 00:23:30;;;;;;;5.07;1.93;;;;;;;6.08;100.00;100131.16;6097642;28;20029;-73
2023/12/12 00:26:25;;;;;;;4.78;1.83;;;;;;;6.07;100.00;100142.63;6096914;28;20033;-76
2023/12/12 00:29:21;;;;;;;7.15;1.70;;;;;;;6.05;100.00;100128.78;6084813;28;20033;-73
2023/12/12 00:32:16;;;;;;;6.03;3.00;;;;;;;6.05;100.00;100139.31;6095581;28;20033;-73
2023/12/12 00:35:11;;;;;;;7.03;1.60;;;;;;;6.06;100.00;100135.72;6096899;28;20057;-73
2023/12/12 00:38:07;;;;;;;6.60;1.47;;;;;;;6.08;100.00;100139.03;6097557;28;20056;-73
2023/12/12 00:41:02;;;;;;;8.70;1.87;;;;;;;6.08;100.00;100149.56;6097428;28;20029;-74
2023/12/12 00:43:57;;;;;;;4.85;2.00;;;;;;;6.06;100.00;100146.25;6096743;28;20358;-73
2023/12/12 00:46:53;;;;;;;13.77;1.77;;;;;;;6.10;100.00;100151.09;6093224;28;20028;-73
2023/12/12 00:49:48;;;;;;;5.53;1.53;;;;;;;6.10;100.00;100147.63;6096949;28;20094;-73
2023/12/12 00:52:43;;;;;;;8.97;1.27;;;;;;;6.09;100.00;100156.50;6098149;28;20498;-73
2023/12/12 00:55:39;;;;;;;3.83;1.30;;;;;;;6.05;100.00;100155.94;6097102;28;20283;-73
2023/12/12 00:58:34;;;;;;;4.53;1.00;;;;;;;6.07;100.00;100153.16;6096994;28;20060;-73
2023/12/12 01:01:29;;;;;;;7.30;1.53;;;;;;;6.03;100.00;100152.59;6097163;28;20520;-75
2023/12/12 01:04:25;;;;;;;4.90;1.77;;;;;;;6.06;100.00;100165.47;6096646;28;20029;-74
2023/12/12 01:07:20;;;;;;;4.00;1.20;;;;;;;6.02;100.00;100160.63;6096017;28;20028;-74
2023/12/12 01:10:15;;;;;;;4.40;1.13;;;;;;;6.00;100.00;100171.28;6096864;28;20055;-73
2023/12/12 01:13:11;;;;;;;5.43;1.67;;;;;;;6.01;100.00;100175.56;6095446;28;20570;-73
2023/12/12 01:16:06;;;;;;;4.87;1.83;;;;;;;5.97;100.00;100179.44;6096553;28;20053;-73
2023/12/12 01:19:02;;;;;;;3.90;1.63;;;;;;;5.91;100.00;100180.78;6096567;28;20033;-73
2023/12/12 01:21:57;;;;;;;4.25;1.27;;;;;;;5.96;100.00;100186.50;6095747;28;20029;-73
2023/12/12 01:24:53;;;;;;;8.50;1.87;;;;;;;5.93;100.00;100178.84;6097042;28;20032;-73
2023/12/12 01:27:48;;;;;;;7.07;1.30;;;;;;;5.85;100.00;100176.03;6096137;28;20020;-73
2023/12/12 01:30:44;;;;;;;4.18;1.17;;;;;;;5.87;100.00;100176.72;6095560;28;20033;-73
2023/12/12 01:33:40;;;;;;;3.95;1.90;;;;;;;5.78;100.00;100160.88;6095705;28;20468;-73
2023/12/12 01:36:35;;;;;;;5.30;1.27;;;;;;;5.84;100.00;100176.94;6096610;28;20048;-74
2023/12/12 01:39:30;;;;;;;5.28;1.50;;;;;;;5.86;100.00;100171.59;6097473;28;20028;-72
2023/12/12 01:42:26;;;;;;;5.10;1.20;;;;;;;5.83;100.00;100172.69;6095981;28;20049;-72
2023/12/12 01:45:24;;;;;;;4.53;1.30;;;;;;;5.86;100.00;100166.34;6096144;28;20025;-73
2023/12/12 01:48:20;;;;;;;2.90;1.50;;;;;;;5.81;100.00;100168.50;6096193;28;20020;-73
2023/12/12 01:51:15;;;;;;;6.57;1.63;;;;;;;5.82;100.00;100165.72;6096048;28;20084;-75
2023/12/12 01:54:12;;;;;;;6.43;1.42;;;;;;;5.76;100.00;100163.63;6096755;28;20051;-73
2023/12/12 01:57:08;;;;;;;5.63;1.50;;;;;;;5.81;100.00;100171.97;6096581;28;20048;-73
2023/12/12 02:00:05;;;;;;;4.03;1.20;;;;;;;5.73;100.00;100161.25;6096108;28;20478;-73
2023/12/12 02:03:00;;;;;;;5.97;1.40;;;;;;;5.79;100.00;100170.41;6095200;28;20083;-74
2023/12/12 02:05:59;;;;;;;4.47;1.20;;;;;;;5.79;100.00;100178.31;6095797;28;20475;-74
2023/12/12 02:08:54;;;;;;;3.88;1.23;;;;;;;5.67;100.00;100153.88;6095866;28;20039;-74
2023/12/12 02:11:50;;;;;;;6.67;1.97;;;;;;;5.71;100.00;100167.59;6086076;28;20396;-74
2023/12/12 02:14:46;;;;;;;9.13;1.90;;;;;;;5.69;100.00;100154.59;6098970;28;20294;-74
2023/12/12 02:17:41;;;;;;;3.17;1.57;;;;;;;5.70;100.00;100160.69;6093335;28;20041;-74
2023/12/12 02:20:36;;;;;;;2.87;1.30;;;;;;;5.61;100.00;100153.56;6092953;28;20129;-74
2023/12/12 02:23:32;;;;;;;5.30;1.43;;;;;;;5.56;100.00;100167.09;6093323;28;20071;-74
2023/12/12 02:26:27;;;;;;;6.07;1.58;;;;;;;5.44;100.00;100154.94;6093371;28;20041;-74
2023/12/12 02:29:22;;;;;;;4.93;1.67;;;;;;;5.38;100.00;100156.28;6094075;28;20037;-73
2023/12/12 02:32:19;;;;;;;9.23;2.03;;;;;;;5.32;100.00;100150.72;6094217;28;20298;-73
2023/12/12 02:35:14;;;;;;;6.22;1.90;;;;;;;5.30;100.00;100150.00;6094982;28;20110;-74
2023/12/12 02:38:09;;;;;;;6.53;1.93;;;;;;;5.27;100.00;100152.91;6095510;28;20361;-72
2023/12/12 02:41:05;;;;;;;4.97;1.93;;;;;;;5.32;100.00;100161.25;6094212;28;20322;-73
2023/12/12 02:44:00;;;;;;;5.73;2.03;;;;;;;5.34;100.00;100168.03;6095431;28;20075;-72
2023/12/12 02:46:55;;;;;;;12.03;2.17;;;;;;;5.27;100.00;100158.97;6094820;28;20769;-73
2023/12/12 02:49:51;;;;;;;8.67;2.00;;;;;;;5.30;100.00;100163.13;6095900;28;20029;-73
2023/12/12 02:52:47;;;;;;;10.98;2.00;;;;;;;5.25;100.00;100153.00;6095258;28;20642;-73
2023/12/12 02:55:42;;;;;;;3.72;2.00;;;;;;;5.23;100.00;100151.47;6094994;28;20090;-74
2023/12/12 02:58:37;;;;;;;5.00;1.40;;;;;;;5.27;100.00;100158.16;6095648;28;20438;-73
2023/12/12 03:01:33;;;;;;;5.53;2.50;;;;;;;5.22;100.00;100155.88;6094985;28;20032;-73
2023/12/12 03:04:28;;;;;;;9.17;2.20;;;;;;;5.17;100.00;100138.81;6094778;28;20469;-74
2023/12/12 03:07:23;;;;;;;4.10;1.50;;;;;;;5.12;100.00;100141.00;6095529;28;20025;-74
2023/12/12 03:10:19;;;;;;;5.70;1.80;;;;;;;5.10;100.00;100142.94;6094400;28;20078;-74
2023/12/12 03:13:14;;;;;;;4.80;1.67;;;;;;;5.06;100.00;100141.50;6095176;28;20025;-73
2023/12/12 03:16:09;;;;;;;5.37;2.00;;;;;;;5.05;100.00;100142.47;6094956;28;20468;-74
2023/12/12 03:19:04;;;;;;;10.37;1.93;;;;;;;5.09;100.00;100133.38;6095154;28;20025;-74
2023/12/12 03:22:00;;;;;;;5.10;1.60;;;;;;;5.08;100.00;100143.03;6093835;28;20036;-74
2023/12/12 03:24:58;;;;;;;2.93;1.60;;;;;;;5.10;100.00;100141.13;6094305;28;20033;-74
2023/12/12 03:27:53;;;;;;;8.98;2.00;;;;;;;4.94;100.00;100124.13;6096069;28;20033;-73
2023/12/12 03:30:48;;;;;;;6.00;1.50;;;;;;;4.86;100.00;100126.53;6098472;28;20044;-74
2023/12/12 03:33:44;;;;;;;7.17;2.37;;;;;;;4.84;100.00;100136.34;6099469;28;20037;-74
2023/12/12 03:36:42;;;;;;;5.53;2.00;;;;;;;4.66;100.00;100130.75;6099780;28;20028;-74
2023/12/12 03:39:41;;;;;;;5.43;1.85;;;;;;;4.58;100.00;100134.00;6098998;28;20025;-74
2023/12/12 03:42:36;;;;;;;4.03;1.65;;;;;;;4.45;100.00;100125.44;6082820;28;20052;-74
2023/12/12 03:45:31;;;;;;;7.13;2.57;;;;;;;4.43;100.00;100137.81;6099267;28;20040;-74
2023/12/12 03:48:26;;;;;;;17.33;2.40;;;;;;;4.32;100.00;100127.34;6099725;28;20418;-74
2023/12/12 03:51:23;;;;;;;6.20;2.27;;;;;;;4.22;100.00;100142.16;6098595;28;20087;-74
2023/12/12 03:54:18;;;;;;;7.22;2.58;;;;;;;4.20;100.00;100141.44;6098820;28;20025;-74
2023/12/12 03:57:13;;;;;;;4.37;1.83;;;;;;;4.09;100.00;100138.81;6095744;28;20491;-73
2023/12/12 04:00:10;;;;;;;11.27;2.47;;;;;;;4.13;100.00;100156.00;6098812;28;20108;-73
2023/12/12 04:03:05;;;;;;;9.82;2.40;;;;;;;4.08;100.00;100152.88;6098436;28;20299;-74
2023/12/12 04:06:03;;;;;;;6.40;1.73;;;;;;;3.97;100.00;100158.09;6098816;28;20037;-74
2023/12/12 04:09:00;;;;;;;5.88;2.10;;;;;;;3.86;100.00;100148.44;6097548;28;20029;-74
2023/12/12 04:11:55;;;;;;;8.23;2.33;;;;;;;3.83;100.00;100155.72;6098100;28;20063;-73
2023/12/12 04:14:50;;;;;;;7.70;2.33;;;;;;;3.80;100.00;100166.44;6096937;28;20028;-73
2023/12/12 04:17:45;;;;;;;5.97;1.73;;;;;;;3.76;100.00;100175.47;6097894;28;20059;-74
2023/12/12 04:20:41;;;;;;;6.07;2.30;;;;;;;3.72;100.00;100166.19;6094936;28;20036;-74
2023/12/12 04:23:42;;;;;;;9.18;2.67;;;;;;;3.64;100.00;100163.31;6097565;28;20052;-74
2023/12/12 04:26:37;;;;;;;6.60;1.88;;;;;;;3.54;100.00;100161.38;6092997;28;20104;-74
2023/12/12 04:29:32;;;;;;;6.80;2.40;;;;;;;3.56;100.00;100166.53;6095658;28;20395;-74
2023/12/12 04:32:28;;;;;;;14.20;2.27;;;;;;;3.67;100.00;100160.47;6096565;28;20511;-74
2023/12/12 04:35:23;;;;;;;11.23;2.73;;;;;;;3.60;100.00;100160.94;6097650;28;20086;-73
2023/12/12 04:38:18;;;;;;;8.63;2.70;;;;;;;3.58;100.00;100156.75;6097391;28;20074;-73
2023/12/12 04:41:14;;;;;;;7.85;2.78;;;;;;;3.60;100.00;100170.56;6095342;28;20055;-73
2023/12/12 04:44:09;;;;;;;8.73;2.70;;;;;;;3.48;100.00;100166.22;6097479;28;20090;-74
2023/12/12 04:47:05;;;;;;;6.18;2.30;;;;;;;3.47;100.00;100173.28;6097968;28;20029;-74
2023/12/12 04:50:00;;;;;;;4.93;2.50;;;;;;;3.40;100.00;100169.44;6097229;28;20041;-74
2023/12/12 04:52:55;;;;;;;7.67;2.60;;;;;;;3.38;100.00;100175.75;6097679;28;20040;-74
2023/12/12 04:55:51;;;;;;;6.70;3.10;;;;;;;3.39;100.00;100182.66;6097443;28;20044;-74
2023/12/12 04:58:46;;;;;;;7.87;2.47;;;;;;;3.30;100.00;100173.69;6097092;28;20468;-74
2023/12/12 05:01:42;;;;;;;6.10;3.22;;;;;;;3.30;100.00;100173.69;6096316;28;20029;-74
2023/12/12 05:04:37;;;;;;;9.32;2.92;;;;;;;3.28;100.00;100162.50;6094882;28;20472;-74
2023/12/12 05:07:33;;;;;;;11.73;3.13;;;;;;;3.21;100.00;100178.75;6097566;28;20741;-73
2023/12/12 05:10:28;;;;;;;7.77;2.70;;;;;;;3.16;100.00;100173.88;6096631;28;20126;-73
2023/12/12 05:13:23;;;;;;;8.93;3.40;;;;;;;3.19;100.00;100186.75;6096591;28;20068;-75
2023/12/12 05:16:19;;;;;;;9.90;3.17;;;;;;;3.22;100.00;100183.06;6096561;28;20037;-74
2023/12/12 05:19:15;;;;;;;6.07;2.80;;;;;;;3.19;100.00;100180.66;6096683;28;20025;-74
2023/12/12 05:22:10;;;;;;;7.23;2.40;;;;;;;3.33;100.00;100189.19;6091065;28;20079;-73
2023/12/12 05:25:06;;;;;;;8.80;3.17;;;;;;;3.26;100.00;100185.31;6094992;28;20369;-74
2023/12/12 05:28:01;;;;;;;7.28;2.90;;;;;;;3.19;100.00;100185.91;6096602;28;20400;-73
2023/12/12 05:30:57;;;;;;;9.73;2.97;;;;;;;3.13;100.00;100189.81;6092273;28;20029;-74
2023/12/12 05:33:52;;;;;;;6.90;2.45;;;;;;;3.14;100.00;100194.09;6096234;28;20032;-74
2023/12/12 05:36:48;;;;;;;11.57;2.80;;;;;;;3.18;100.00;100190.28;6094119;28;20048;-74
2023/12/12 05:39:43;;;;;;;13.18;3.13;;;;;;;3.05;100.00;100186.91;6097584;28;20483;-74
2023/12/12 05:42:38;;;;;;;8.37;3.37;;;;;;;3.07;100.00;100192.88;6096222;28;20396;-74
2023/12/12 05:45:33;;;;;;;9.73;2.80;;;;;;;3.01;100.00;100193.31;6096706;28;20047;-74
2023/12/12 05:48:30;;;;;;;9.27;2.93;;;;;;;3.09;100.00;100206.69;6093687;28;20268;-74
2023/12/12 05:51:26;;;;;;;11.02;3.42;;;;;;;2.98;100.00;100190.94;6090943;28;20021;-74
2023/12/12 05:54:22;;;;;;;12.07;2.78;;;;;;;2.97;100.00;100197.94;6101498;28;20397;-73
2023/12/12 05:57:17;;;;;;;10.70;3.28;;;;;;;3.08;100.00;100205.03;6103837;28;20029;-74
2023/12/12 06:00:13;;;;;;;11.73;4.07;;;;;;;3.05;100.00;100205.25;6104625;28;20048;-73
2023/12/12 06:03:08;;;;;;;9.50;2.95;;;;;;;3.02;100.00;100199.41;6088735;28;20539;-74
2023/12/12 06:06:07;;;;;;;6.87;3.30;;;;;;;3.12;100.00;100211.72;6099748;28;20058;-74
2023/12/12 06:09:03;;;;;;;11.10;3.78;;;;;;;3.15;100.00;100210.66;6105017;28;20387;-73
2023/12/12 06:12:00;;;;;;;10.95;3.72;;;;;;;3.21;100.00;100205.78;6100192;28;20057;-73
2023/12/12 06:14:56;;;;;;;6.80;3.28;;;;;;;3.26;100.00;100208.91;6112045;28;20094;-73
2023/12/12 06:17:51;;;;;;;7.88;3.50;;;;;;;3.28;100.00;100209.66;6104969;28;20554;-73
2023/12/12 06:20:46;;;;;;;9.13;3.20;;;;;;;3.29;100.00;100208.69;6102675;28;20063;-74
2023/12/12 06:23:42;;;;;;;8.10;3.77;;;;;;;3.28;100.00;100206.19;6095824;28;20064;-74
2023/12/12 06:26:37;;;;;;;11.87;3.63;;;;;;;3.22;100.00;100204.00;6099704;28;20043;-74
2023/12/12 06:29:32;;;;;;;14.23;3.97;;;;;;;3.24;100.00;100208.19;6102057;28;20031;-74
2023/12/12 06:32:28;;;;;;;11.03;3.97;;;;;;;3.12;100.00;100203.88;6101784;28;20380;-74
2023/12/12 06:35:23;;;;;;;11.30;4.32;;;;;;;3.16;100.00;100212.31;6101096;28;20048;-74
2023/12/12 06:38:18;;;;;;;11.47;3.20;;;;;;;3.10;100.00;100197.06;6108455;28;20053;-73
2023/12/12 06:41:14;;;;;;;10.47;4.17;;;;;;;3.02;100.00;100199.41;6101053;28;20537;-74
2023/12/12 06:44:10;;;;;;;10.75;3.78;;;;;;;3.03;100.00;100209.75;6101396;28;20519;-74
2023/12/12 06:47:06;;;;;;;9.85;3.33;;;;;;;3.04;100.00;100198.34;6099181;28;20497;-74
2023/12/12 06:50:03;;;;;;;13.43;4.37;;;;;;;3.15;100.00;100198.41;6099801;28;20026;-73
2023/12/12 06:52:58;;;;;;;9.57;3.70;;;;;;;3.17;100.00;100188.66;6100175;28;20025;-73
2023/12/12 06:55:53;;;;;;;10.52;3.45;;;;;;;3.31;100.00;100196.34;6104204;28;20033;-73
2023/12/12 06:58:49;;;;;;;13.40;3.47;;;;;;;3.29;100.00;100194.78;6103406;28;20450;-72
2023/12/12 07:01:44;;;;;;;10.50;3.77;;;;;;;3.25;100.00;100207.25;6102479;28;20054;-73
2023/12/12 07:04:39;;;;;;;9.03;4.23;;;;;;;3.26;100.00;100205.47;6106090;28;20040;-73
2023/12/12 07:07:34;;;;;;;8.97;3.93;;;;;;;3.35;100.00;100195.16;6107141;28;20082;-73
2023/12/12 07:10:30;;;;;;;11.20;3.97;;;;;;;3.53;100.00;100191.16;6105002;28;20036;-73
2023/12/12 07:13:26;;;;;;;9.40;3.60;;;;;;;3.47;100.00;100196.88;6105414;28;20110;-74
2023/12/12 07:16:21;;;;;;;6.73;3.27;;;;;;;3.54;100.00;100202.47;6104363;28;20036;-74
2023/12/12 07:19:16;;;;;;;8.93;4.20;;;;;;;3.51;100.00;100195.69;6103914;28;20503;-74
2023/12/12 07:22:12;;;;;;;7.40;3.70;;;;;;;3.55;100.00;100197.13;6108425;28;20029;-73
2023/12/12 07:25:08;;;;;;;9.77;4.00;;;;;;;3.55;100.00;100199.75;6104332;28;20033;-73
2023/12/12 07:28:03;;;;;;;11.38;3.80;;;;;;;3.62;100.00;100205.34;6106573;28;20118;-73
2023/12/12 07:30:58;;;;;;;10.70;3.90;;;;;;;3.66;100.00;100205.97;6103770;28;20044;-73
2023/12/12 07:33:54;;;;;;;7.37;3.60;;;;;;;3.75;100.00;100200.88;6097620;28;20040;-73
2023/12/12 07:36:49;;;;;;;11.15;2.97;;;;;;;3.76;100.00;100199.09;6096549;28;20021;-73
2023/12/12 07:39:45;;;;;;;8.27;3.37;;;;;;;3.79;100.00;100201.47;6102275;28;20034;-73
2023/12/12 07:42:40;;;;;;;8.30;2.55;;;;;;;3.91;100.00;100200.56;6103367;28;20106;-73
2023/12/12 07:45:35;;;;;;;6.73;2.90;;;;;;;4.00;100.00;100199.84;6105913;28;20032;-73
2023/12/12 07:48:31;;;;;;;6.53;2.70;;;;;;;4.17;100.00;100204.63;6103484;28;20097;-74
2023/12/12 07:51:27;;;;;;;5.57;3.23;;;;;;;4.30;100.00;100191.41;6101324;28;20041;-74
2023/12/12 07:54:22;;;;;;;7.53;3.08;;;;;;;4.40;100.00;100208.97;6100653;28;20025;-74
2023/12/12 07:57:18;;;;;;;6.65;2.63;;;;;;;4.42;100.00;100199.19;6109912;28;20442;-74
2023/12/12 08:00:13;;;;;;;10.27;2.40;;;;;;;4.46;100.00;100205.00;6101012;28;20035;-74
2023/12/12 08:03:09;;;;;;;8.60;2.95;;;;;;;4.37;100.00;100203.94;6099485;28;20328;-72
2023/12/12 08:06:04;;;;;;;5.43;2.53;;;;;;;4.49;100.00;100213.47;6102969;28;20037;-73
2023/12/12 08:09:00;;;;;;;14.48;3.22;;;;;;;4.51;100.00;100205.50;6095485;28;20423;-72
2023/12/12 08:11:55;;;;;;;10.17;3.57;;;;;;;4.70;100.00;100198.66;6097613;28;20116;-73
2023/12/12 08:14:53;;;;;;;7.75;2.85;;;;;;;4.87;100.00;100199.94;6096411;28;20095;-73
2023/12/12 08:17:49;;;;;;;11.15;3.53;;;;;;;4.95;100.00;100210.66;6094359;28;20032;-74
2023/12/12 08:20:45;;;;;;;8.98;3.40;;;;;;;4.95;100.00;100204.56;6095057;28;20682;-74
2023/12/12 08:23:42;;;;;;;6.47;3.45;;;;;;;5.14;100.00;100210.03;6092933;28;20041;-73
2023/12/12 08:26:43;;;;;;;9.55;3.20;;;;;;;5.38;100.00;100213.31;6096914;28;20040;-73
2023/12/12 08:29:39;;;;;;;8.07;3.20;;;;;;;5.33;100.00;100203.16;6093170;28;20044;-73
2023/12/12 08:32:36;;;;;;;11.57;3.07;;;;;;;5.66;100.00;100210.06;6097605;28;20025;-73
2023/12/12 08:35:31;;;;;;;10.13;3.53;;;;;;;5.54;100.00;100207.63;6097253;28;20025;-72
2023/12/12 08:38:26;;;;;;;8.60;3.87;;;;;;;5.56;100.00;100203.91;6095066;28;20041;-72
2023/12/12 08:41:22;;;;;;;9.38;3.70;;;;;;;5.54;100.00;100205.84;6097349;28;20104;-74
2023/12/12 08:44:17;;;;;;;8.48;3.58;;;;;;;5.67;100.00;100209.13;6097686;28;20029;-74
2023/12/12 08:47:13;;;;;;;8.60;3.27;;;;;;;5.68;100.00;100218.66;6097041;28;20079;-74
2023/12/12 08:50:09;;;;;;;8.23;3.70;;;;;;;5.71;100.00;100215.78;6097193;28;20275;-73
2023/12/12 08:53:04;;;;;;;10.45;4.28;;;;;;;5.70;100.00;100211.50;6097302;28;20029;-73
2023/12/12 08:55:59;;;;;;;6.43;3.10;;;;;;;5.66;100.00;100217.97;6095613;28;20036;-74
2023/12/12 08:58:55;;;;;;;8.10;3.57;;;;;;;5.72;100.00;100214.81;6097889;28;20033;-74
2023/12/12 09:01:50;;;;;;;9.60;3.43;;;;;;;5.80;100.00;100216.81;6038835;28;20049;-74
2023/12/12 09:04:45;;;;;;;10.98;4.18;;;;;;;5.77;100.00;100202.13;6079601;28;20273;-73
2023/12/12 09:07:41;;;;;;;9.10;3.65;;;;;;;5.79;100.00;100196.72;6073107;28;20033;-74
2023/12/12 09:10:36;;;;;;;9.77;3.33;;;;;;;5.89;100.00;100198.50;6076344;28;20037;-72
2023/12/12 09:13:31;;;;;;;6.37;2.77;;;;;;;5.94;100.00;100198.94;6072852;28;20472;-73
2023/12/12 09:16:27;;;;;;;6.93;3.30;;;;;;;5.93;100.00;100197.28;6069354;28;20076;-73
2023/12/12 09:19:22;;;;;;;9.87;3.10;;;;;;;5.83;100.00;100195.50;6066968;28;20037;-72
2023/12/12 09:22:17;;;;;;;6.57;3.43;;;;;;;5.91;100.00;100204.47;6070109;28;20033;-72
2023/12/12 09:25:13;;;;;;;9.32;2.90;;;;;;;5.89;100.00;100197.66;6072962;28;20041;-73
2023/12/12 09:28:08;;;;;;;9.70;3.60;;;;;;;5.89;100.00;100184.50;6067696;28;20687;-73
2023/12/12 09:31:03;;;;;;;8.47;2.97;;;;;;;6.06;100.00;100196.25;6071922;28;20463;-73
2023/12/12 09:33:59;;;;;;;8.82;3.88;;;;;;;6.34;100.00;100200.81;6072815;28;20096;-73
2023/12/12 09:36:54;;;;;;;6.10;3.40;;;;;;;6.19;100.00;100202.13;6073492;28;20026;-73
2023/12/12 09:39:50;;;;;;;11.98;4.50;;;;;;;6.18;100.00;100187.28;6073538;28;20109;-73
2023/12/12 09:42:47;;;;;;;8.40;3.90;;;;;;;6.23;100.00;100185.94;6071419;28;20175;-73
2023/12/12 09:45:46;;;;;;;8.55;3.83;;;;;;;6.22;100.00;100193.97;6071644;28;20091;-73
2023/12/12 09:48:48;;;;;;;11.10;4.32;;;;;;;6.17;100.00;100175.13;6071266;28;20124;-73
2023/12/12 09:51:43;;;;;;;10.75;4.03;;;;;;;6.24;100.00;100189.41;6071747;28;20498;-73
2023/12/12 09:54:39;;;;;;;12.20;4.57;;;;;;;6.32;100.00;100185.16;6071195;28;20034;-73
2023/12/12 09:57:35;;;;;;;10.88;4.78;;;;;;;6.31;100.00;100180.00;6069077;28;20068;-72
2023/12/12 10:00:30;;;;;;;9.53;3.97;;;;;;;6.38;100.00;100183.78;6071237;28;20041;-73
2023/12/12 10:03:26;;;;;;;7.93;4.00;;;;;;;6.43;100.00;100178.97;6070758;28;20276;-73
2023/12/12 10:06:24;;;;;;;7.13;3.63;;;;;;;6.65;100.00;100165.59;6071570;28;20554;-73
2023/12/12 10:09:21;;;;;;;8.82;4.13;;;;;;;6.69;100.00;100161.69;6070013;28;20090;-73
2023/12/12 10:12:17;;;;;;;10.25;3.70;;;;;;;6.72;100.00;100158.81;6069406;28;20029;-73
2023/12/12 10:15:23;;;;;;;8.93;4.00;;;;;;;6.76;100.00;100162.84;6071185;28;20068;-73
2023/12/12 10:18:21;;;;;;;10.50;5.40;;;;;;;6.70;100.00;100149.38;6066996;28;20518;-73
2023/12/12 10:21:18;;;;;;;9.93;4.60;;;;;;;6.74;100.00;100142.88;6069704;28;20040;-74
2023/12/12 10:24:25;;;;;;;13.18;4.72;;;;;;;6.86;100.00;100150.50;6070579;28;20439;-74
2023/12/12 10:27:20;;;;;;;13.07;5.15;;;;;;;7.01;100.00;100141.22;6070402;28;20034;-74
2023/12/12 10:30:16;;;;;;;10.75;5.13;;;;;;;7.10;100.00;100119.31;6068058;28;20033;-74
2023/12/12 10:33:14;;;;;;;12.57;4.10;;;;;;;7.16;100.00;100134.59;6069570;28;20472;-74
2023/12/12 10:36:10;;;;;;;8.50;4.22;;;;;;;7.17;100.00;100130.97;6071414;28;20029;-74
2023/12/12 10:39:15;;;;;;;7.43;3.50;;;;;;;7.22;100.00;100127.94;6076714;28;20029;-73
2023/12/12 10:42:10;;;;;;;8.65;3.80;;;;;;;7.14;100.00;100115.44;6073033;28;20052;-74
2023/12/12 10:45:07;;;;;;;10.90;4.23;;;;;;;7.18;100.00;100106.28;6073906;28;20033;-74
2023/12/12 10:48:05;;;;;;;8.60;4.20;;;;;;;7.17;100.00;100117.78;6069682;28;20288;-73
2023/12/12 10:51:02;;;;;;;8.20;5.00;;;;;;;7.05;100.00;100103.09;6064929;28;20044;-73
2023/12/12 10:53:59;;;;;;;11.35;5.03;;;;;;;7.27;100.00;100114.31;6072626;28;20132;-73
2023/12/12 10:56:54;;;;;;;9.93;4.63;;;;;;;7.42;100.00;100103.19;6074236;28;20041;-73
2023/12/12 10:59:50;;;;;;;11.05;5.03;;;;;;;7.48;100.00;100084.19;6074771;28;20040;-73
2023/12/12 11:02:45;;;;;;;11.52;4.68;;;;;;;7.40;100.00;100077.94;6056058;28;20029;-73
2023/12/12 11:05:41;;;;;;;12.20;4.47;;;;;;;7.28;100.00;100089.63;6073928;28;20095;-73
2023/12/12 11:08:37;;;;;;;10.95;4.65;;;;;;;7.27;100.00;100083.50;6072764;28;20119;-73
2023/12/12 11:11:32;;;;;;;11.63;4.53;;;;;;;7.29;100.00;100075.44;6069050;28;20034;-73
2023/12/12 11:14:28;;;;;;;9.95;4.40;;;;;;;7.31;100.00;100073.53;6073129;28;20782;-73
2023/12/12 11:17:23;;;;;;;10.63;4.70;;;;;;;7.45;100.00;100075.69;6076749;28;20044;-73
2023/12/12 11:20:19;;;;;;;12.70;5.30;;;;;;;7.58;100.00;100060.44;6072506;28;20372;-73
2023/12/12 11:23:46;;;;;;;12.88;5.72;;;;;;;7.47;100.00;100068.50;6074370;28;20045;-73
2023/12/12 11:26:42;;;;;;;10.43;5.35;;;;;;;7.51;100.00;100059.31;6073709;28;20032;-73
2023/12/12 11:29:40;;;;;;;10.95;5.45;;;;;;;7.64;100.00;100049.28;6070106;28;20060;-73
2023/12/12 11:32:36;;;;;;;9.82;5.38;;;;;;;7.86;100.00;100032.25;6073242;28;20042;-73
2023/12/12 11:35:32;;;;;;;11.00;5.40;;;;;;;7.67;100.00;100034.00;6070622;28;20064;-73
2023/12/12 11:38:33;;;;;;;12.50;5.30;;;;;;;7.73;100.00;100043.16;6074626;28;20040;-73
2023/12/12 11:41:28;;;;;;;14.45;6.82;;;;;;;7.70;100.00;100043.44;6072780;28;20076;-73
2023/12/12 11:44:23;;;;;;;14.53;5.67;;;;;;;7.73;100.00;100038.72;6074988;28;20377;-73
2023/12/12 11:47:20;;;;;;;13.50;6.20;;;;;;;7.76;100.00;100037.59;6073632;28;20021;-73
2023/12/12 11:50:22;;;;;;;14.80;5.55;;;;;;;7.88;100.00;100044.31;6073644;28;20033;-73
2023/12/12 11:53:42;;;;;;;13.50;5.13;;;;;;;7.94;100.00;100037.63;6072679;28;20044;-73
2023/12/12 11:56:37;;;;;;;12.30;5.88;;;;;;;8.16;100.00;100035.44;6075728;28;20476;-73
2023/12/12 11:59:33;;;;;;;15.77;5.67;;;;;;;7.98;100.00;100021.38;6075183;28;20064;-73
2023/12/12 12:02:31;;;;;;;15.52;6.38;;;;;;;8.05;100.00;100018.97;6074623;28;20033;-73
2023/12/12 12:05:27;;;;;;;13.88;6.03;;;;;;;7.97;100.00;100022.34;6073386;28;20031;-73
2023/12/12 12:08:22;;;;;;;12.63;5.82;;;;;;;7.89;100.00;100010.84;6074847;28;20033;-72
2023/12/12 12:11:17;;;;;;;12.83;6.27;;;;;;;7.76;100.00;100008.56;6073531;28;20033;-72
2023/12/12 12:14:14;;;;;;;12.00;5.50;;;;;;;7.73;100.00;100001.75;6073520;28;20191;-72
2023/12/12 12:17:09;;;;;;;14.85;5.43;;;;;;;7.66;100.00;100005.94;6073962;28;20049;-72
2023/12/12 12:20:05;;;;;;;12.10;4.85;;;;;;;7.70;100.00;99995.94;6073000;28;20064;-72
2023/12/12 12:23:01;;;;;;;12.18;4.55;;;;;;;7.62;100.00;99985.28;6073588;28;20033;-72
2023/12/12 12:25:59;;;;;;;14.37;4.70;;;;;;;7.65;100.00;99984.97;6073572;28;20033;-73
2023/12/12 12:28:54;;;;;;;13.18;5.53;;;;;;;7.71;100.00;99973.84;6070377;28;20118;-73
2023/12/12 12:31:50;;;;;;;16.40;5.50;;;;;;;7.61;100.00;99973.88;6073704;28;20029;-73
2023/12/12 12:34:45;;;;;;;17.60;9.60;;;;;;;7.49;100.00;99966.31;6073135;28;20021;-73
2023/12/12 12:37:41;;;;;;;13.90;5.30;;;;;;;7.46;100.00;99972.72;6073218;28;20363;-73
2023/12/12 12:40:38;;;;;;;11.55;4.78;;;;;;;7.41;100.00;99979.38;6073750;28;20048;-73
2023/12/12 12:43:33;;;;;;;17.02;6.40;;;;;;;7.41;100.00;99969.69;6073282;28;20049;-73
2023/12/12 12:46:28;;;;;;;12.02;5.00;;;;;;;7.45;100.00;99968.41;6070413;28;20528;-73
2023/12/12 12:49:24;;;;;;;11.73;4.63;;;;;;;7.39;100.00;99973.44;6073157;28;20480;-73
2023/12/12 12:52:19;;;;;;;12.97;5.17;;;;;;;7.27;100.00;99961.38;6073299;28;20472;-73
2023/12/12 12:55:14;;;;;;;13.13;5.00;;;;;;;7.28;100.00;99950.72;6072711;28;20043;-73
2023/12/12 12:58:14;;;;;;;12.27;5.43;;;;;;;7.35;100.00;99959.69;6073775;28;20065;-73
2023/12/12 13:01:09;;;;;;;13.30;4.55;;;;;;;7.39;100.00;99960.25;6073059;28;20060;-73
2023/12/12 13:04:04;;;;;;;12.43;4.70;;;;;;;7.36;100.00;99942.06;6073159;28;20033;-73
2023/12/12 13:07:02;;;;;;;16.43;6.63;;;;;;;7.36;100.00;99955.25;6073764;28;20037;-73
2023/12/12 13:09:58;;;;;;;12.43;5.05;;;;;;;7.31;100.00;99950.41;6072684;28;20484;-73
2023/12/12 13:12:53;;;;;;;13.33;4.93;;;;;;;7.32;100.00;99943.31;6072692;28;20060;-73
2023/12/12 13:15:48;;;;;;;11.25;4.72;;;;;;;7.41;100.00;99948.56;6072457;28;20033;-72
2023/12/12 13:18:44;;;;;;;13.10;5.67;;;;;;;7.45;100.00;99943.81;6072895;28;20073;-73
2023/12/12 13:21:39;;;;;;;11.57;3.97;;;;;;;7.50;100.00;99946.88;6072043;28;20272;-73
2023/12/12 13:24:34;;;;;;;8.47;4.90;;;;;;;7.54;100.00;99942.97;6073148;28;20079;-73
2023/12/12 13:27:29;;;;;;;10.13;4.30;;;;;;;7.51;100.00;99959.91;6072310;28;20033;-73
2023/12/12 13:30:25;;;;;;;8.93;3.80;;;;;;;7.47;100.00;99953.28;6068853;28;20032;-73
2023/12/12 13:33:20;;;;;;;6.40;3.80;;;;;;;7.46;100.00;99938.41;6073459;28;20044;-73
2023/12/12 13:36:16;;;;;;;8.30;4.27;;;;;;;7.55;100.00;99948.09;6073476;28;20029;-73